sensor_id;sensor_type;location;lat;lon;timestamp;pressure;altitude;pressure_sealevel;temperature;humidity
66945;BME280;53853;51.982;5.928;2023-03-24T00:01:19;99772.19;;;13.12;78.89
66945;BME280;53853;51.982;5.928;2023-03-24T00:03:52;99760.63;;;13.11;78.77
66945;BME280;53853;51.982;5.928;2023-03-24T00:06:22;99768.47;;;13.13;78.94
66945;BME280;53853;51.982;5.928;2023-03-24T00:08:52;99751.59;;;13.12;78.84
66945;BME280;53853;51.982;5.928;2023-03-24T00:11:22;99752.41;;;13.13;79.03
66945;BME280;53853;51.982;5.928;2023-03-24T00:13:52;99746.06;;;13.14;79.07
66945;BME280;53853;51.982;5.928;2023-03-24T00:16:24;99740.09;;;13.12;79.06
66945;BME280;53853;51.982;5.928;2023-03-24T00:18:57;99741.72;;;13.13;79.12
66945;BME280;53853;51.982;5.928;2023-03-24T00:21:27;99738.03;;;13.14;79.23
66945;BME280;53853;51.982;5.928;2023-03-24T00:23:58;99732.88;;;13.12;79.25
66945;BME280;53853;51.982;5.928;2023-03-24T00:26:30;99730.19;;;13.12;79.54
66945;BME280;53853;51.982;5.928;2023-03-24T00:29:18;99721.56;;;13.10;79.44
66945;BME280;53853;51.982;5.928;2023-03-24T00:31:48;99727.09;;;13.09;79.86
66945;BME280;53853;51.982;5.928;2023-03-24T00:34:21;99724.63;;;13.07;80.12
66945;BME280;53853;51.982;5.928;2023-03-24T00:36:51;99720.28;;;13.06;80.13
66945;BME280;53853;51.982;5.928;2023-03-24T00:39:21;99721.09;;;13.07;80.40
66945;BME280;53853;51.982;5.928;2023-03-24T00:41:51;99708.75;;;13.05;80.44
66945;BME280;53853;51.982;5.928;2023-03-24T00:44:24;99694.34;;;13.07;80.45
66945;BME280;53853;51.982;5.928;2023-03-24T00:46:54;99700.75;;;13.05;80.42
66945;BME280;53853;51.982;5.928;2023-03-24T00:49:29;99694.34;;;13.07;80.79
66945;BME280;53853;51.982;5.928;2023-03-24T00:52:12;99690.66;;;13.08;80.56
66945;BME280;53853;51.982;5.928;2023-03-24T00:54:44;99684.94;;;13.11;80.57
66945;BME280;53853;51.982;5.928;2023-03-24T00:57:16;99691.09;;;13.11;80.54
66945;BME280;53853;51.982;5.928;2023-03-24T00:59:47;99679.56;;;13.11;80.64
66945;BME280;53853;51.982;5.928;2023-03-24T01:02:20;99680.41;;;13.11;80.72
66945;BME280;53853;51.982;5.928;2023-03-24T01:04:55;99678.94;;;13.09;80.72
66945;BME280;53853;51.982;5.928;2023-03-24T01:07:27;99678.09;;;13.08;80.98
66945;BME280;53853;51.982;5.928;2023-03-24T01:09:57;99671.94;;;13.08;81.08
66945;BME280;53853;51.982;5.928;2023-03-24T01:12:30;99661.25;;;13.08;80.84
66945;BME280;53853;51.982;5.928;2023-03-24T01:15:03;99661.25;;;13.08;81.04
66945;BME280;53853;51.982;5.928;2023-03-24T01:17:34;99652.19;;;13.09;81.05
66945;BME280;53853;51.982;5.928;2023-03-24T01:20:08;99651.63;;;13.13;80.94
66945;BME280;53853;51.982;5.928;2023-03-24T01:22:39;99649.56;;;13.15;80.97
66945;BME280;53853;51.982;5.928;2023-03-24T01:25:12;99628.16;;;13.15;80.83
66945;BME280;53853;51.982;5.928;2023-03-24T01:27:42;99637.84;;;13.16;80.91
66945;BME280;53853;51.982;5.928;2023-03-24T01:30:14;99636.00;;;13.17;80.97
66945;BME280;53853;51.982;5.928;2023-03-24T01:32:45;99632.50;;;13.16;80.90
66945;BME280;53853;51.982;5.928;2023-03-24T01:35:18;99626.72;;;13.19;81.09
66945;BME280;53853;51.982;5.928;2023-03-24T01:37:48;99613.78;;;13.16;80.86
66945;BME280;53853;51.982;5.928;2023-03-24T01:40:21;99618.09;;;13.17;81.09
66945;BME280;53853;51.982;5.928;2023-03-24T01:42:52;99598.97;;;13.20;81.19
66945;BME280;53853;51.982;5.928;2023-03-24T01:45:57;99608.47;;;13.23;81.15
66945;BME280;53853;51.982;5.928;2023-03-24T01:48:30;99599.78;;;13.21;81.33
66945;BME280;53853;51.982;5.928;2023-03-24T01:51:09;99605.13;;;13.21;81.22
66945;BME280;53853;51.982;5.928;2023-03-24T01:53:43;99598.16;;;13.20;81.54
66945;BME280;53853;51.982;5.928;2023-03-24T01:56:14;99599.78;;;13.21;81.57
66945;BME280;53853;51.982;5.928;2023-03-24T01:58:47;99591.75;;;13.21;81.59
66945;BME280;53853;51.982;5.928;2023-03-24T02:01:25;99587.06;;;13.23;81.63
66945;BME280;53853;51.982;5.928;2023-03-24T02:04:20;99591.56;;;13.22;81.85
66945;BME280;53853;51.982;5.928;2023-03-24T02:06:54;99579.22;;;13.21;81.88
66945;BME280;53853;51.982;5.928;2023-03-24T02:09:25;99583.72;;;13.21;82.21
66945;BME280;53853;51.982;5.928;2023-03-24T02:11:55;99577.56;;;13.20;82.05
66945;BME280;53853;51.982;5.928;2023-03-24T02:14:26;99570.34;;;13.21;82.32
66945;BME280;53853;51.982;5.928;2023-03-24T02:17:08;99562.34;;;13.21;82.24
66945;BME280;53853;51.982;5.928;2023-03-24T02:29:40;99555.16;;;13.21;82.54
66945;BME280;53853;51.982;5.928;2023-03-24T02:35:46;99555.16;;;13.21;82.67
66945;BME280;53853;51.982;5.928;2023-03-24T02:41:44;99556.97;;;13.21;82.97
66945;BME280;53853;51.982;5.928;2023-03-24T02:44:20;99551.84;;;13.19;83.19
66945;BME280;53853;51.982;5.928;2023-03-24T02:47:02;99550.81;;;13.20;83.58
66945;BME280;53853;51.982;5.928;2023-03-24T02:49:41;99551.00;;;13.19;83.57
66945;BME280;53853;51.982;5.928;2023-03-24T02:52:17;99544.66;;;13.20;83.65
66945;BME280;53853;51.982;5.928;2023-03-24T02:54:58;99539.31;;;13.20;83.58
66945;BME280;53853;51.982;5.928;2023-03-24T02:57:37;99548.97;;;13.21;83.55
66945;BME280;53853;51.982;5.928;2023-03-24T03:00:33;99548.56;;;13.24;83.56
66945;BME280;53853;51.982;5.928;2023-03-24T03:03:08;99544.88;;;13.25;83.35
66945;BME280;53853;51.982;5.928;2023-03-24T03:05:46;99545.88;;;13.24;83.25
66945;BME280;53853;51.982;5.928;2023-03-24T03:08:19;99540.53;;;13.24;83.39
66945;BME280;53853;51.982;5.928;2023-03-24T03:10:52;99558.44;;;13.23;83.60
66945;BME280;53853;51.982;5.928;2023-03-24T03:13:30;99551.63;;;13.21;83.98
66945;BME280;53853;51.982;5.928;2023-03-24T03:16:06;99570.75;;;13.18;84.16
66945;BME280;53853;51.982;5.928;2023-03-24T03:18:40;99607.97;;;13.13;85.00
66945;BME280;53853;51.982;5.928;2023-03-24T03:21:13;99630.16;;;13.07;83.87
66945;BME280;53853;51.982;5.928;2023-03-24T03:23:49;99637.09;;;12.94;81.31
66945;BME280;53853;51.982;5.928;2023-03-24T03:26:22;99636.19;;;12.87;79.07
66945;BME280;53853;51.982;5.928;2023-03-24T03:28:59;99637.59;;;12.83;78.74
66945;BME280;53853;51.982;5.928;2023-03-24T03:31:35;99640.03;;;12.78;78.00
66945;BME280;53853;51.982;5.928;2023-03-24T03:34:14;99641.84;;;12.71;77.87
66945;BME280;53853;51.982;5.928;2023-03-24T03:36:48;99647.31;;;12.62;76.72
66945;BME280;53853;51.982;5.928;2023-03-24T03:39:27;99661.47;;;12.56;76.89
66945;BME280;53853;51.982;5.928;2023-03-24T03:42:01;99664.91;;;12.50;77.10
66945;BME280;53853;51.982;5.928;2023-03-24T03:44:35;99659.28;;;12.45;77.36
66945;BME280;53853;51.982;5.928;2023-03-24T03:47:05;99677.53;;;12.41;77.20
66945;BME280;53853;51.982;5.928;2023-03-24T03:49:40;99664.31;;;12.33;77.04
66945;BME280;53853;51.982;5.928;2023-03-24T03:52:10;99678.06;;;12.30;76.62
66945;BME280;53853;51.982;5.928;2023-03-24T03:54:41;99677.13;;;12.23;75.67
66945;BME280;53853;51.982;5.928;2023-03-24T03:57:13;99696.81;;;12.15;75.48
66945;BME280;53853;51.982;5.928;2023-03-24T04:00:08;99709.25;;;12.08;76.13
66945;BME280;53853;51.982;5.928;2023-03-24T04:02:55;99727.94;;;12.08;76.93
66945;BME280;53853;51.982;5.928;2023-03-24T04:05:33;99712.09;;;12.06;77.47
66945;BME280;53853;51.982;5.928;2023-03-24T04:08:23;99736.88;;;12.00;76.40
66945;BME280;53853;51.982;5.928;2023-03-24T04:11:25;99729.59;;;11.94;76.46
66945;BME280;53853;51.982;5.928;2023-03-24T04:14:39;99730.31;;;11.88;76.18
66945;BME280;53853;51.982;5.928;2023-03-24T04:17:44;99736.06;;;11.85;76.48
66945;BME280;53853;51.982;5.928;2023-03-24T04:20:47;99755.56;;;11.85;76.92
66945;BME280;53853;51.982;5.928;2023-03-24T04:23:25;99748.91;;;11.81;76.21
66945;BME280;53853;51.982;5.928;2023-03-24T04:26:04;99762.19;;;11.74;76.35
66945;BME280;53853;51.982;5.928;2023-03-24T04:28:47;99762.38;;;11.73;76.73
66945;BME280;53853;51.982;5.928;2023-03-24T04:31:28;99775.44;;;11.68;75.76
66945;BME280;53853;51.982;5.928;2023-03-24T04:34:06;99780.50;;;11.63;76.29
66945;BME280;53853;51.982;5.928;2023-03-24T04:36:44;99779.66;;;11.62;76.60
66945;BME280;53853;51.982;5.928;2023-03-24T04:39:36;99786.84;;;11.62;76.52
66945;BME280;53853;51.982;5.928;2023-03-24T04:42:16;99797.78;;;11.52;76.05
66945;BME280;53853;51.982;5.928;2023-03-24T04:44:48;99805.13;;;11.50;76.07
66945;BME280;53853;51.982;5.928;2023-03-24T04:47:46;99809.00;;;11.47;75.91
66945;BME280;53853;51.982;5.928;2023-03-24T04:50:48;99814.16;;;11.49;75.70
66945;BME280;53853;51.982;5.928;2023-03-24T04:53:21;99817.63;;;11.49;75.36
66945;BME280;53853;51.982;5.928;2023-03-24T04:56:03;99796.84;;;11.45;75.33
66945;BME280;53853;51.982;5.928;2023-03-24T04:58:50;99820.38;;;11.41;75.36
66945;BME280;53853;51.982;5.928;2023-03-24T05:01:20;99823.06;;;11.41;75.66
66945;BME280;53853;51.982;5.928;2023-03-24T05:04:11;99834.09;;;11.38;74.88
66945;BME280;53853;51.982;5.928;2023-03-24T05:06:44;99829.94;;;11.35;75.54
66945;BME280;53853;51.982;5.928;2023-03-24T05:09:18;99836.94;;;11.36;75.73
66945;BME280;53853;51.982;5.928;2023-03-24T05:11:50;99834.91;;;11.38;75.50
66945;BME280;53853;51.982;5.928;2023-03-24T05:14:22;99836.09;;;11.36;75.13
66945;BME280;53853;51.982;5.928;2023-03-24T05:16:54;99839.59;;;11.36;74.65
66945;BME280;53853;51.982;5.928;2023-03-24T05:19:24;99834.16;;;11.30;74.48
66945;BME280;53853;51.982;5.928;2023-03-24T05:21:57;99850.97;;;11.30;74.69
66945;BME280;53853;51.982;5.928;2023-03-24T05:24:27;99853.34;;;11.25;74.55
66945;BME280;53853;51.982;5.928;2023-03-24T05:26:57;99860.53;;;11.24;74.78
66945;BME280;53853;51.982;5.928;2023-03-24T05:29:27;99861.91;;;11.20;74.39
66945;BME280;53853;51.982;5.928;2023-03-24T05:31:57;99870.25;;;11.17;74.10
66945;BME280;53853;51.982;5.928;2023-03-24T05:34:27;99875.28;;;11.12;74.45
66945;BME280;53853;51.982;5.928;2023-03-24T05:37:09;99868.63;;;11.08;74.58
66945;BME280;53853;51.982;5.928;2023-03-24T05:39:44;99879.47;;;11.06;74.93
66945;BME280;53853;51.982;5.928;2023-03-24T05:42:36;99895.31;;;11.08;75.07
66945;BME280;53853;51.982;5.928;2023-03-24T05:45:08;99892.16;;;11.04;74.54
66945;BME280;53853;51.982;5.928;2023-03-24T05:47:39;99895.81;;;11.03;74.68
66945;BME280;53853;51.982;5.928;2023-03-24T05:50:10;99907.16;;;11.05;75.04
66945;BME280;53853;51.982;5.928;2023-03-24T05:52:42;99903.94;;;11.10;75.19
66945;BME280;53853;51.982;5.928;2023-03-24T05:55:32;99918.59;;;11.14;75.35
66945;BME280;53853;51.982;5.928;2023-03-24T05:58:13;99917.25;;;11.18;75.18
66945;BME280;53853;51.982;5.928;2023-03-24T06:00:50;99920.38;;;11.22;75.16
66945;BME280;53853;51.982;5.928;2023-03-24T06:03:31;99920.03;;;11.25;74.34
66945;BME280;53853;51.982;5.928;2023-03-24T06:06:09;99927.75;;;11.20;74.50
66945;BME280;53853;51.982;5.928;2023-03-24T06:08:45;99928.56;;;11.20;74.25
66945;BME280;53853;51.982;5.928;2023-03-24T06:11:16;99934.38;;;11.24;74.31
66945;BME280;53853;51.982;5.928;2023-03-24T06:14:01;99932.56;;;11.24;74.36
66945;BME280;53853;51.982;5.928;2023-03-24T06:16:41;99934.00;;;11.27;74.30
66945;BME280;53853;51.982;5.928;2023-03-24T06:19:15;99925.03;;;11.28;74.34
66945;BME280;53853;51.982;5.928;2023-03-24T06:22:11;99936.34;;;11.30;74.63
66945;BME280;53853;51.982;5.928;2023-03-24T06:24:44;99937.13;;;11.39;73.85
66945;BME280;53853;51.982;5.928;2023-03-24T06:27:16;99947.78;;;11.39;73.47
66945;BME280;53853;51.982;5.928;2023-03-24T06:29:47;99947.44;;;11.42;73.60
66945;BME280;53853;51.982;5.928;2023-03-24T06:32:18;99947.09;;;11.45;73.93
66945;BME280;53853;51.982;5.928;2023-03-24T06:34:48;99954.53;;;11.50;72.75
66945;BME280;53853;51.982;5.928;2023-03-24T06:37:37;99947.38;;;11.50;73.60
66945;BME280;53853;51.982;5.928;2023-03-24T06:40:13;99954.06;;;11.46;73.35
66945;BME280;53853;51.982;5.928;2023-03-24T06:42:51;99954.06;;;11.46;73.35
66945;BME280;53853;51.982;5.928;2023-03-24T06:45:21;99955.72;;;11.47;72.77
66945;BME280;53853;51.982;5.928;2023-03-24T06:47:52;99961.06;;;11.47;72.70
66945;BME280;53853;51.982;5.928;2023-03-24T06:50:23;99958.22;;;11.49;73.12
66945;BME280;53853;51.982;5.928;2023-03-24T06:52:59;99960.38;;;11.53;73.11
66945;BME280;53853;51.982;5.928;2023-03-24T06:55:33;99958.16;;;11.57;72.18
66945;BME280;53853;51.982;5.928;2023-03-24T06:58:04;99966.28;;;11.64;72.32
66945;BME280;53853;51.982;5.928;2023-03-24T07:00:42;99965.94;;;11.67;72.00
66945;BME280;53853;51.982;5.928;2023-03-24T07:03:39;99977.25;;;11.69;71.87
66945;BME280;53853;51.982;5.928;2023-03-24T07:06:16;99976.25;;;11.70;71.71
66945;BME280;53853;51.982;5.928;2023-03-24T07:08:51;99975.41;;;11.69;72.19
66945;BME280;53853;51.982;5.928;2023-03-24T07:11:26;99984.53;;;11.75;71.62
66945;BME280;53853;51.982;5.928;2023-03-24T07:13:59;99979.53;;;11.80;71.20
66945;BME280;53853;51.982;5.928;2023-03-24T07:16:30;99991.47;;;11.84;71.45
66945;BME280;53853;51.982;5.928;2023-03-24T07:19:20;99985.59;;;11.89;71.44
66945;BME280;53853;51.982;5.928;2023-03-24T07:22:05;99995.09;;;11.91;71.01
66945;BME280;53853;51.982;5.928;2023-03-24T07:24:51;99991.25;;;11.94;71.39
66945;BME280;53853;51.982;5.928;2023-03-24T07:27:45;99997.09;;;11.98;70.08
66945;BME280;53853;51.982;5.928;2023-03-24T07:30:16;99995.00;;;12.08;70.55
66945;BME280;53853;51.982;5.928;2023-03-24T07:32:46;99999.78;;;12.12;70.55
66945;BME280;53853;51.982;5.928;2023-03-24T07:35:17;100004.94;;;12.14;69.49
66945;BME280;53853;51.982;5.928;2023-03-24T07:37:48;100008.38;;;12.23;69.97
66945;BME280;53853;51.982;5.928;2023-03-24T07:40:19;100001.47;;;12.28;69.35
66945;BME280;53853;51.982;5.928;2023-03-24T07:42:51;100004.25;;;12.35;69.96
66945;BME280;53853;51.982;5.928;2023-03-24T07:45:37;99989.81;;;12.44;68.92
66945;BME280;53853;51.982;5.928;2023-03-24T07:48:07;100003.34;;;12.43;68.22
66945;BME280;53853;51.982;5.928;2023-03-24T07:50:38;99998.28;;;12.48;68.74
66945;BME280;53853;51.982;5.928;2023-03-24T07:53:31;99995.22;;;12.51;68.45
66945;BME280;53853;51.982;5.928;2023-03-24T07:56:01;99993.88;;;12.55;68.30
66945;BME280;53853;51.982;5.928;2023-03-24T07:58:34;99997.44;;;12.62;68.21
66945;BME280;53853;51.982;5.928;2023-03-24T08:01:29;100005.78;;;12.67;67.60
66945;BME280;53853;51.982;5.928;2023-03-24T08:04:02;99995.91;;;12.68;67.68
66945;BME280;53853;51.982;5.928;2023-03-24T08:06:50;100004.75;;;12.68;68.14
66945;BME280;53853;51.982;5.928;2023-03-24T08:09:20;100004.19;;;12.73;67.88
66945;BME280;53853;51.982;5.928;2023-03-24T08:11:51;100011.47;;;12.79;67.21
66945;BME280;53853;51.982;5.928;2023-03-24T08:14:23;100012.09;;;12.81;67.29
66945;BME280;53853;51.982;5.928;2023-03-24T08:16:53;100014.34;;;12.93;67.21
66945;BME280;53853;51.982;5.928;2023-03-24T08:19:23;100031.56;;;13.05;66.38
66945;BME280;53853;51.982;5.928;2023-03-24T08:21:53;100018.66;;;13.09;66.37
66945;BME280;53853;51.982;5.928;2023-03-24T08:24:23;100024.66;;;13.11;66.76
66945;BME280;53853;51.982;5.928;2023-03-24T08:26:53;100023.16;;;13.23;66.99
66945;BME280;53853;51.982;5.928;2023-03-24T08:29:31;100033.75;;;13.31;66.40
66945;BME280;53853;51.982;5.928;2023-03-24T08:32:02;100035.03;;;13.35;66.16
66945;BME280;53853;51.982;5.928;2023-03-24T08:34:32;100035.97;;;13.43;64.27
66945;BME280;53853;51.982;5.928;2023-03-24T08:37:02;100046.03;;;13.40;63.87
66945;BME280;53853;51.982;5.928;2023-03-24T08:39:33;100031.34;;;13.36;63.39
66945;BME280;53853;51.982;5.928;2023-03-24T08:42:03;100042.06;;;13.36;64.53
66945;BME280;53853;51.982;5.928;2023-03-24T08:44:35;100044.75;;;13.36;63.93
66945;BME280;53853;51.982;5.928;2023-03-24T08:47:05;100051.66;;;13.31;64.11
66945;BME280;53853;51.982;5.928;2023-03-24T08:49:35;100047.94;;;13.32;64.41
66945;BME280;53853;51.982;5.928;2023-03-24T08:52:05;100054.81;;;13.34;64.57
66945;BME280;53853;51.982;5.928;2023-03-24T08:54:36;100055.25;;;13.38;64.31
66945;BME280;53853;51.982;5.928;2023-03-24T08:57:05;100053.03;;;13.41;64.09
66945;BME280;53853;51.982;5.928;2023-03-24T08:59:41;100060.06;;;13.43;64.19
66945;BME280;53853;51.982;5.928;2023-03-24T09:02:12;100050.28;;;13.50;63.66
66945;BME280;53853;51.982;5.928;2023-03-24T09:04:42;100064.91;;;13.54;63.04
66945;BME280;53853;51.982;5.928;2023-03-24T09:07:12;100067.41;;;13.55;63.30
66945;BME280;53853;51.982;5.928;2023-03-24T09:09:42;100066.47;;;13.63;61.63
66945;BME280;53853;51.982;5.928;2023-03-24T09:12:12;100073.13;;;13.67;62.19
66945;BME280;53853;51.982;5.928;2023-03-24T09:14:50;100068.19;;;13.71;61.80
66945;BME280;53853;51.982;5.928;2023-03-24T09:17:20;100063.53;;;13.80;60.92
66945;BME280;53853;51.982;5.928;2023-03-24T09:19:50;100064.06;;;13.90;61.01
66945;BME280;53853;51.982;5.928;2023-03-24T09:22:20;100061.66;;;13.95;60.50
66945;BME280;53853;51.982;5.928;2023-03-24T09:24:49;100066.56;;;13.91;59.45
66945;BME280;53853;51.982;5.928;2023-03-24T09:27:19;100069.06;;;13.93;59.85
66945;BME280;53853;51.982;5.928;2023-03-24T09:29:52;100072.75;;;13.92;59.53
66945;BME280;53853;51.982;5.928;2023-03-24T09:32:22;100089.72;;;13.99;60.10
66945;BME280;53853;51.982;5.928;2023-03-24T09:34:52;100080.84;;;13.99;59.51
66945;BME280;53853;51.982;5.928;2023-03-24T09:37:22;100076.78;;;14.03;59.75
66945;BME280;53853;51.982;5.928;2023-03-24T09:39:52;100083.84;;;14.10;60.02
66945;BME280;53853;51.982;5.928;2023-03-24T09:42:24;100087.88;;;14.21;59.33
66945;BME280;53853;51.982;5.928;2023-03-24T09:45:10;100084.47;;;14.34;59.44
66945;BME280;53853;51.982;5.928;2023-03-24T09:47:51;100091.38;;;14.43;59.44
66945;BME280;53853;51.982;5.928;2023-03-24T09:50:25;100086.47;;;14.54;59.02
66945;BME280;53853;51.982;5.928;2023-03-24T09:52:58;100084.22;;;14.57;58.61
66945;BME280;53853;51.982;5.928;2023-03-24T09:55:31;100085.78;;;14.66;59.29
66945;BME280;53853;51.982;5.928;2023-03-24T09:58:04;100088.13;;;14.76;58.18
66945;BME280;53853;51.982;5.928;2023-03-24T10:00:45;100088.00;;;14.84;57.74
66945;BME280;53853;51.982;5.928;2023-03-24T10:03:19;100090.81;;;14.76;57.78
66945;BME280;53853;51.982;5.928;2023-03-24T10:05:50;100100.66;;;14.69;56.62
66945;BME280;53853;51.982;5.928;2023-03-24T10:08:27;100099.31;;;14.58;57.58
66945;BME280;53853;51.982;5.928;2023-03-24T10:11:03;100100.28;;;14.50;58.04
66945;BME280;53853;51.982;5.928;2023-03-24T10:13:42;100105.16;;;14.40;58.17
66945;BME280;53853;51.982;5.928;2023-03-24T10:16:21;100094.97;;;14.29;58.62
66945;BME280;53853;51.982;5.928;2023-03-24T10:18:58;100108.78;;;14.11;58.65
66945;BME280;53853;51.982;5.928;2023-03-24T10:21:35;100118.06;;;14.08;59.78
66945;BME280;53853;51.982;5.928;2023-03-24T10:24:16;100115.94;;;14.04;60.28
66945;BME280;53853;51.982;5.928;2023-03-24T10:26:50;100117.66;;;13.90;60.23
66945;BME280;53853;51.982;5.928;2023-03-24T10:29:25;100122.09;;;13.83;60.69
66945;BME280;53853;51.982;5.928;2023-03-24T10:32:01;100127.38;;;13.76;60.67
66945;BME280;53853;51.982;5.928;2023-03-24T10:34:33;100127.38;;;13.76;61.00
66945;BME280;53853;51.982;5.928;2023-03-24T10:37:04;100129.69;;;13.79;60.89
66945;BME280;53853;51.982;5.928;2023-03-24T10:39:34;100129.47;;;13.81;58.91
66945;BME280;53853;51.982;5.928;2023-03-24T10:42:04;100127.81;;;13.80;57.86
66945;BME280;53853;51.982;5.928;2023-03-24T10:44:35;100121.25;;;13.82;57.70
66945;BME280;53853;51.982;5.928;2023-03-24T10:47:10;100116.53;;;13.84;57.50
66945;BME280;53853;51.982;5.928;2023-03-24T10:49:52;100126.38;;;13.99;57.04
66945;BME280;53853;51.982;5.928;2023-03-24T10:52:23;100128.78;;;14.08;56.13
66945;BME280;53853;51.982;5.928;2023-03-24T10:54:55;100124.09;;;14.17;55.86
66945;BME280;53853;51.982;5.928;2023-03-24T10:57:26;100111.41;;;14.26;56.07
66945;BME280;53853;51.982;5.928;2023-03-24T10:59:57;100116.06;;;14.39;55.81
66945;BME280;53853;51.982;5.928;2023-03-24T11:02:34;100125.44;;;14.28;54.87
66945;BME280;53853;51.982;5.928;2023-03-24T11:05:14;100125.00;;;14.24;55.81
66945;BME280;53853;51.982;5.928;2023-03-24T11:07:46;100130.00;;;14.27;56.01
66945;BME280;53853;51.982;5.928;2023-03-24T11:10:22;100135.66;;;14.39;57.34
66945;BME280;53853;51.982;5.928;2023-03-24T11:13:00;100129.13;;;14.48;57.48
66945;BME280;53853;51.982;5.928;2023-03-24T11:15:32;100135.19;;;14.57;58.28
66945;BME280;53853;51.982;5.928;2023-03-24T11:18:15;100134.25;;;14.65;58.46
66945;BME280;53853;51.982;5.928;2023-03-24T11:20:49;100134.00;;;14.60;58.19
66945;BME280;53853;51.982;5.928;2023-03-24T11:23:25;100143.81;;;14.53;58.21
66945;BME280;53853;51.982;5.928;2023-03-24T11:26:11;100142.16;;;14.52;58.20
66945;BME280;53853;51.982;5.928;2023-03-24T11:28:45;100163.22;;;14.55;60.94
66945;BME280;53853;51.982;5.928;2023-03-24T11:31:22;100177.03;;;14.52;61.96
66945;BME280;53853;51.982;5.928;2023-03-24T11:34:00;100168.97;;;14.52;62.22
66945;BME280;53853;51.982;5.928;2023-03-24T11:36:48;100171.28;;;14.55;62.65
66945;BME280;53853;51.982;5.928;2023-03-24T11:39:21;100164.75;;;14.42;61.79
66945;BME280;53853;51.982;5.928;2023-03-24T11:42:10;100167.31;;;14.50;61.30
66945;BME280;53853;51.982;5.928;2023-03-24T11:44:45;100149.31;;;14.66;59.67
66945;BME280;53853;51.982;5.928;2023-03-24T11:47:21;100152.50;;;14.76;58.74
66945;BME280;53853;51.982;5.928;2023-03-24T11:50:04;100137.50;;;14.82;57.41
66945;BME280;53853;51.982;5.928;2023-03-24T11:52:44;100146.59;;;14.88;57.77
66945;BME280;53853;51.982;5.928;2023-03-24T11:55:18;100148.38;;;15.02;58.02
66945;BME280;53853;51.982;5.928;2023-03-24T11:57:58;100156.72;;;15.20;57.52
66945;BME280;53853;51.982;5.928;2023-03-24T12:00:34;100160.06;;;15.23;57.31
66945;BME280;53853;51.982;5.928;2023-03-24T12:06:18;100158.44;;;15.00;57.23
66945;BME280;53853;51.982;5.928;2023-03-24T12:09:01;100172.22;;;14.90;58.60
66945;BME280;53853;51.982;5.928;2023-03-24T12:11:48;100176.78;;;14.68;60.97
66945;BME280;53853;51.982;5.928;2023-03-24T12:14:27;100182.81;;;14.34;64.07
66945;BME280;53853;51.982;5.928;2023-03-24T12:17:03;100197.13;;;14.04;65.18
66945;BME280;53853;51.982;5.928;2023-03-24T12:19:55;100197.00;;;13.76;67.68
66945;BME280;53853;51.982;5.928;2023-03-24T12:22:41;100214.19;;;13.52;72.28
66945;BME280;53853;51.982;5.928;2023-03-24T12:25:27;100209.88;;;13.13;72.12
66945;BME280;53853;51.982;5.928;2023-03-24T12:28:10;100204.69;;;12.96;72.85
66945;BME280;53853;51.982;5.928;2023-03-24T12:30:48;100197.03;;;12.93;72.95
66945;BME280;53853;51.982;5.928;2023-03-24T12:33:34;100192.50;;;12.94;72.69
66945;BME280;53853;51.982;5.928;2023-03-24T12:36:19;100195.97;;;12.79;70.28
66945;BME280;53853;51.982;5.928;2023-03-24T12:39:07;100202.59;;;12.45;68.49
66945;BME280;53853;51.982;5.928;2023-03-24T12:41:57;100189.25;;;12.14;69.72
66945;BME280;53853;51.982;5.928;2023-03-24T12:45:04;100194.19;;;12.02;70.95
66945;BME280;53853;51.982;5.928;2023-03-24T12:50:48;100181.50;;;11.88;71.18
66945;BME280;53853;51.982;5.928;2023-03-24T12:53:38;100169.81;;;11.97;72.36
66945;BME280;53853;51.982;5.928;2023-03-24T12:56:18;100171.91;;;12.10;72.84
66945;BME280;53853;51.982;5.928;2023-03-24T12:58:51;100162.78;;;12.27;73.30
66945;BME280;53853;51.982;5.928;2023-03-24T13:01:25;100157.22;;;12.37;72.88
66945;BME280;53853;51.982;5.928;2023-03-24T13:04:03;100158.63;;;12.48;73.40
66945;BME280;53853;51.982;5.928;2023-03-24T13:06:39;100144.84;;;12.59;71.73
66945;BME280;53853;51.982;5.928;2023-03-24T13:09:18;100147.09;;;12.71;71.24
66945;BME280;53853;51.982;5.928;2023-03-24T13:11:58;100147.47;;;12.82;72.82
66945;BME280;53853;51.982;5.928;2023-03-24T13:14:33;100138.47;;;12.98;71.87
66945;BME280;53853;51.982;5.928;2023-03-24T13:17:13;100137.28;;;13.16;72.76
66945;BME280;53853;51.982;5.928;2023-03-24T13:19:46;100129.44;;;13.29;71.40
66945;BME280;53853;51.982;5.928;2023-03-24T13:22:19;100128.06;;;13.33;71.11
66945;BME280;53853;51.982;5.928;2023-03-24T13:24:51;100130.66;;;13.41;71.15
66945;BME280;53853;51.982;5.928;2023-03-24T13:27:29;100124.28;;;13.43;71.16
66945;BME280;53853;51.982;5.928;2023-03-24T13:30:30;100144.88;;;13.42;68.33
66945;BME280;53853;51.982;5.928;2023-03-24T13:33:04;100138.09;;;13.31;69.35
66945;BME280;53853;51.982;5.928;2023-03-24T13:35:51;100135.72;;;13.21;69.73
66945;BME280;53853;51.982;5.928;2023-03-24T13:38:32;100156.91;;;12.93;73.96
66945;BME280;53853;51.982;5.928;2023-03-24T13:41:05;100146.41;;;12.68;72.80
66945;BME280;53853;51.982;5.928;2023-03-24T13:43:46;100141.03;;;12.54;72.44
66945;BME280;53853;51.982;5.928;2023-03-24T13:46:18;100155.84;;;12.41;71.83
66945;BME280;53853;51.982;5.928;2023-03-24T13:48:51;100146.56;;;12.29;72.32
66945;BME280;53853;51.982;5.928;2023-03-24T13:51:25;100141.13;;;12.22;73.05
66945;BME280;53853;51.982;5.928;2023-03-24T13:53:57;100154.19;;;12.17;73.43
66945;BME280;53853;51.982;5.928;2023-03-24T13:56:33;100159.53;;;12.17;73.76
66945;BME280;53853;51.982;5.928;2023-03-24T13:59:25;100163.53;;;12.13;73.28
66945;BME280;53853;51.982;5.928;2023-03-24T14:02:19;100155.34;;;12.14;74.16
66945;BME280;53853;51.982;5.928;2023-03-24T14:05:02;100157.50;;;12.19;73.31
66945;BME280;53853;51.982;5.928;2023-03-24T14:07:43;100155.13;;;12.24;73.73